| time (UTC) | temp C | wind direction | speed KPH | gust KPH | rain 1hr cm | rain 24hr cm | rain mn cm | humidity % | barometer mb |
| 20260507080054 | 7 | 348 | 3.2 | 14.5 | 0.00 | 1.09 | 0.28 | 90 | 1007.0 |
| 20260507074610 | 7 | 338 | 3.2 | 17.7 | 0.00 | 1.09 | 0.28 | 90 | 1006.6 |
| 20260507073052 | 8 | 329 | 6.4 | 16.1 | 0.00 | 1.09 | 0.28 | 92 | 1006.7 |
| 20260507071554 | 8 | 0 | 8.0 | 20.9 | 0.00 | 1.09 | 0.28 | 93 | 1006.6 |
| 20260507070107 | 8 | 9 | 4.8 | 12.9 | 0.00 | 1.09 | 0.28 | 94 | 1006.3 |
| 20260507064554 | 8 | 313 | 1.6 | 9.7 | 0.00 | 1.09 | 0.28 | 94 | 1006.2 |
| 20260507063059 | 8 | 33 | 4.8 | 12.9 | 0.00 | 1.09 | 0.28 | 94 | 1005.9 |
| 20260507061550 | 8 | 352 | 3.2 | 9.7 | 0.00 | 1.09 | 0.28 | 94 | 1006.0 |
| 20260507060050 | 8 | 38 | 3.2 | 11.3 | 0.00 | 1.09 | 0.28 | 95 | 1005.9 |
| 20260507054553 | 8 | 0 | 1.6 | 6.4 | 0.00 | 1.09 | 0.28 | 95 | 1005.8 |
| 20260507053051 | 8 | 338 | 3.2 | 12.9 | 0.00 | 1.09 | 0.28 | 95 | 1005.7 |
| 20260507051548 | 8 | 336 | 3.2 | 14.5 | 0.03 | 1.09 | 0.28 | 95 | 1005.8 |
| 20260507050053 | 8 | 26 | 4.8 | 16.1 | 0.25 | 1.09 | 0.28 | 95 | 1005.6 |
| 20260507044546 | 9 | 13 | 3.2 | 24.1 | 0.30 | 1.09 | 0.28 | 95 | 1005.8 |
| 20260507043054 | 10 | 337 | 8.0 | 25.7 | 0.30 | 1.09 | 0.28 | 95 | 1005.6 |
| 20260507041552 | 11 | 26 | 4.8 | 22.5 | 0.28 | 1.07 | 0.25 | 95 | 1005.6 |
| 20260507040058 | 12 | 16 | 3.2 | 12.9 | 0.05 | 0.84 | 0.03 | 95 | 1005.7 |
| 20260507034547 | 12 | 236 | 4.8 | 12.9 | 0.00 | 0.79 | 0.79 | 95 | 1005.0 |
| 20260507033049 | 12 | 235 | 6.4 | 14.5 | 0.00 | 0.79 | 0.79 | 95 | 1004.7 |
| 20260507031548 | 12 | 247 | 9.7 | 16.1 | 0.00 | 0.79 | 0.79 | 95 | 1004.6 |
| 20260507030048 | 12 | 207 | 8.0 | 16.1 | 0.00 | 0.79 | 0.79 | 95 | 1004.8 |
| 20260507024548 | 12 | 223 | 6.4 | 12.9 | 0.00 | 0.79 | 0.79 | 95 | 1004.8 |
| 20260507023051 | 11 | 197 | 6.4 | 16.1 | 0.03 | 0.79 | 0.79 | 95 | 1005.0 |
| 20260507021549 | 11 | 202 | 6.4 | 14.5 | 0.03 | 0.79 | 0.79 | 95 | 1005.0 |
| 20260507020053 | 11 | 182 | 4.8 | 19.3 | 0.03 | 0.79 | 0.79 | 95 | 1005.1 |
| 20260507014557 | 11 | 171 | 8.0 | 19.3 | 0.03 | 0.79 | 0.79 | 95 | 1005.1 |
| 20260507013110 | 11 | 176 | 4.8 | 17.7 | 0.00 | 0.76 | 0.76 | 95 | 1005.4 |
| 20260507011558 | 11 | 175 | 4.8 | 16.1 | 0.00 | 0.76 | 0.76 | 94 | 1005.4 |
| 20260507010104 | 11 | 190 | 4.8 | 14.5 | 0.00 | 0.76 | 0.76 | 95 | 1005.4 |
| 20260507004552 | 11 | 144 | 6.4 | 20.9 | 0.00 | 0.76 | 0.76 | 94 | 1005.5 |
| 20260507003049 | 11 | 173 | 4.8 | 24.1 | 0.00 | 0.76 | 0.76 | 94 | 1005.5 |
| 20260507001550 | 11 | 198 | 8.0 | 20.9 | 0.00 | 0.76 | 0.76 | 94 | 1005.5 |
| 20260507000051 | 11 | 188 | 9.7 | 25.7 | 0.00 | 0.76 | 0.76 | 94 | 1005.6 |
| 20260506234549 | 11 | 132 | 12.9 | 29.0 | 0.00 | 0.79 | 0.76 | 94 | 1005.5 |
| 20260506233106 | 12 | 200 | 11.3 | 33.8 | 0.00 | 0.79 | 0.76 | 94 | 1005.3 |
| 20260506231547 | 12 | 211 | 11.3 | 24.1 | 0.00 | 0.79 | 0.76 | 94 | 1005.5 |
| 20260506230050 | 12 | 175 | 11.3 | 27.4 | 0.00 | 0.79 | 0.76 | 94 | 1005.6 |
| 20260506224550 | 12 | 187 | 9.7 | 27.4 | 0.00 | 0.79 | 0.76 | 94 | 1005.8 |
| 20260506223053 | 12 | 171 | 11.3 | 25.7 | 0.00 | 0.79 | 0.76 | 94 | 1006.0 |
| 20260506221557 | 12 | 230 | 8.0 | 29.0 | 0.03 | 0.79 | 0.76 | 93 | 1006.1 |
| 20260506220050 | 12 | 165 | 11.3 | 32.2 | 0.05 | 0.79 | 0.76 | 93 | 1006.3 |
| 20260506214551 | 12 | 292 | 9.7 | 29.0 | 0.15 | 0.79 | 0.76 | 93 | 1006.4 |
| 20260506213050 | 12 | 232 | 9.7 | 35.4 | 0.23 | 0.79 | 0.76 | 93 | 1006.4 |
| 20260506211601 | 12 | 190 | 12.9 | 37.0 | 0.25 | 0.76 | 0.74 | 93 | 1006.5 |
| 20260506210052 | 12 | 163 | 11.3 | 24.1 | 0.23 | 0.74 | 0.71 | 93 | 1006.5 |
| 20260506204556 | 13 | 150 | 4.8 | 16.1 | 0.18 | 0.64 | 0.61 | 93 | 1006.7 |
| 20260506203052 | 13 | 156 | 4.8 | 16.1 | 0.15 | 0.56 | 0.53 | 92 | 1006.7 |
| 20260506201551 | 13 | 169 | 8.0 | 27.4 | 0.13 | 0.51 | 0.48 | 92 | 1006.8 |
| 20260506200051 | 13 | 150 | 4.8 | 24.1 | 0.25 | 0.51 | 0.48 | 92 | 1006.8 |
| 20260506194550 | 13 | 208 | 8.0 | 17.7 | 0.38 | 0.46 | 0.43 | 91 | 1007.3 |
| 20260506193049 | 13 | 195 | 9.7 | 22.5 | 0.38 | 0.41 | 0.38 | 91 | 1007.2 |
| 20260506191549 | 12 | 192 | 8.0 | 20.9 | 0.36 | 0.38 | 0.36 | 90 | 1007.1 |
| 20260506190052 | 12 | 251 | 9.7 | 19.3 | 0.23 | 0.25 | 0.23 | 89 | 1007.6 |
| 20260506184551 | 12 | 173 | 8.0 | 24.1 | 0.05 | 0.08 | 0.05 | 87 | 1007.3 |
| 20260506183049 | 13 | 197 | 9.7 | 29.0 | 0.00 | 0.03 | 0.00 | 83 | 1007.3 |
| 20260506181547 | 15 | 146 | 11.3 | 29.0 | 0.00 | 0.03 | 0.00 | 78 | 1007.2 |
| 20260506180047 | 15 | 197 | 8.0 | 22.5 | 0.00 | 0.03 | 0.00 | 76 | 1007.2 |
| 20260506174550 | 15 | 117 | 6.4 | 17.7 | 0.00 | 0.03 | 0.00 | 76 | 1007.2 |
| 20260506173104 | 15 | 175 | 4.8 | 22.5 | 0.00 | 0.03 | 0.00 | 77 | 1007.4 |
| 20260506171553 | 15 | 176 | 9.7 | 19.3 | 0.00 | 0.03 | 0.00 | 77 | 1007.6 |
| 20260506170059 | 16 | 187 | 4.8 | 14.5 | 0.00 | 0.03 | 0.00 | 76 | 1008.1 |
| 20260506164610 | 16 | 148 | 4.8 | 16.1 | 0.00 | 0.03 | 0.00 | 76 | 1008.3 |
| 20260506163059 | 16 | 161 | 3.2 | 19.3 | 0.00 | 0.03 | 0.00 | 75 | 1008.6 |
| 20260506161551 | 16 | 169 | 6.4 | 17.7 | 0.00 | 0.03 | 0.00 | 76 | 1008.9 |
| 20260506160104 | 15 | 140 | 6.4 | 14.5 | 0.00 | 0.03 | 0.00 | 77 | 1009.3 |
| 20260506154554 | 15 | 153 | 4.8 | 14.5 | 0.00 | 0.03 | 0.00 | 77 | 1009.6 |
| 20260506153047 | 15 | 219 | 3.2 | 14.5 | 0.00 | 0.03 | 0.00 | 77 | 1009.4 |
| 20260506151555 | 15 | 166 | 4.8 | 12.9 | 0.00 | 0.03 | 0.00 | 77 | 1009.6 |
| 20260506150049 | 15 | 195 | 4.8 | 14.5 | 0.00 | 0.03 | 0.00 | 77 | 1009.3 |
| 20260506144548 | 15 | 139 | 3.2 | 14.5 | 0.00 | 0.03 | 0.00 | 76 | 1009.2 |
| 20260506143050 | 15 | 152 | 4.8 | 16.1 | 0.00 | 0.03 | 0.00 | 75 | 1008.9 |
| 20260506141604 | 15 | 128 | 4.8 | 12.9 | 0.00 | 0.03 | 0.00 | 76 | 1009.1 |
| 20260506140050 | 16 | 0 | 4.8 | 11.3 | 0.00 | 0.03 | 0.00 | 75 | 1009.6 |
| 20260506134549 | 16 | 136 | 3.2 | 9.7 | 0.00 | 0.03 | 0.00 | 76 | 1009.7 |
| 20260506133104 | 15 | 213 | 3.2 | 11.3 | 0.00 | 0.03 | 0.00 | 77 | 1009.7 |
| 20260506131555 | 15 | 204 | 3.2 | 9.7 | 0.00 | 0.03 | 0.00 | 78 | 1009.4 |
| 20260506130051 | 15 | 138 | 1.6 | 8.0 | 0.00 | 0.03 | 0.00 | 77 | 1009.6 |
| 20260506124550 | 14 | 178 | 3.2 | 9.7 | 0.00 | 0.03 | 0.00 | 77 | 1009.5 |
| 20260506123051 | 14 | 138 | 3.2 | 9.7 | 0.00 | 0.03 | 0.00 | 78 | 1009.7 |
| 20260506121559 | 13 | 229 | 3.2 | 8.0 | 0.00 | 0.03 | 0.00 | 79 | 1010.0 |
| 20260506120115 | 13 | 145 | 1.6 | 8.0 | 0.00 | 0.03 | 0.00 | 79 | 1010.0 |
| 20260506114550 | 13 | 205 | 3.2 | 11.3 | 0.00 | 0.03 | 0.00 | 80 | 1010.1 |
| 20260506113047 | 12 | 175 | 1.6 | 8.0 | 0.00 | 0.03 | 0.00 | 81 | 1010.2 |
| 20260506111552 | 12 | 175 | 3.2 | 8.0 | 0.00 | 0.03 | 0.00 | 81 | 1010.3 |
| 20260506110049 | 12 | 132 | 0.0 | 6.4 | 0.00 | 0.03 | 0.00 | 81 | 1010.5 |
| 20260506104548 | 12 | 128 | 1.6 | 8.0 | 0.00 | 0.03 | 0.00 | 81 | 1010.3 |
| 20260506103053 | 12 | 0 | 1.6 | 6.4 | 0.00 | 0.03 | 0.00 | 80 | 1010.2 |
| 20260506101551 | 12 | 94 | 1.6 | 9.7 | 0.00 | 0.03 | 0.00 | 77 | 1009.9 |
| 20260506100056 | 13 | 196 | 3.2 | 11.3 | 0.00 | 0.03 | 0.00 | 76 | 1009.8 |
| 20260506094550 | 13 | 171 | 3.2 | 12.9 | 0.00 | 0.03 | 0.00 | 77 | 1009.8 |
| 20260506093055 | 12 | 132 | 4.8 | 17.7 | 0.00 | 0.03 | 0.00 | 78 | 1009.8 |
| 20260506091550 | 12 | 163 | 4.8 | 12.9 | 0.00 | 0.03 | 0.00 | 79 | 1009.8 |
| 20260506090053 | 12 | 157 | 4.8 | 12.9 | 0.00 | 0.03 | 0.00 | 78 | 1009.7 |
| 20260506084553 | 12 | 129 | 3.2 | 9.7 | 0.00 | 0.03 | 0.00 | 77 | 1009.5 |
| 20260506083051 | 13 | 176 | 1.6 | 12.9 | 0.00 | 0.03 | 0.00 | 75 | 1009.5 |
| 20260506081554 | 13 | 157 | 4.8 | 16.1 | 0.00 | 0.03 | 0.00 | 74 | 1009.2 |